createdAt,value
2023-09-08T00:00:52.269Z,20.60
2023-09-08T00:03:22.919Z,20.60
2023-09-08T00:05:51.079Z,20.67
2023-09-08T00:08:18.614Z,20.66
2023-09-08T00:10:46.431Z,20.68
2023-09-08T00:13:14.083Z,20.74
2023-09-08T00:15:41.655Z,20.43
2023-09-08T00:18:09.528Z,20.57
2023-09-08T00:20:37.364Z,20.48
2023-09-08T00:23:04.980Z,20.28
2023-09-08T00:25:32.937Z,20.19
2023-09-08T00:28:00.421Z,20.12
2023-09-08T00:30:27.898Z,20.30
2023-09-08T00:32:55.817Z,20.27
2023-09-08T00:35:23.580Z,20.35
2023-09-08T00:37:51.186Z,20.39
2023-09-08T00:40:19.056Z,20.40
2023-09-08T00:42:46.624Z,20.34
2023-09-08T00:45:14.210Z,20.31
2023-09-08T00:47:42.128Z,20.26
2023-09-08T00:50:10.098Z,20.31
2023-09-08T00:52:37.723Z,20.25
2023-09-08T00:55:05.959Z,20.05
2023-09-08T00:57:33.807Z,20.20
2023-09-08T01:00:01.586Z,19.95
2023-09-08T01:02:29.689Z,19.71
2023-09-08T01:04:57.346Z,19.50
2023-09-08T01:07:24.874Z,19.85
2023-09-08T01:09:52.958Z,19.80
2023-09-08T01:12:20.779Z,19.77
2023-09-08T01:14:48.373Z,20.02
2023-09-08T01:17:16.175Z,20.10
2023-09-08T01:19:44.501Z,20.01
2023-09-08T01:22:47.105Z,20.02
2023-09-08T01:25:25.848Z,20.11
2023-09-08T01:27:55.054Z,20.08
2023-09-08T01:30:24.983Z,19.99
2023-09-08T01:32:53.651Z,20.01
2023-09-08T01:35:21.336Z,20.05
2023-09-08T01:37:50.192Z,20.02
2023-09-08T01:40:17.874Z,20.07
2023-09-08T01:42:46.307Z,20.09
2023-09-08T01:45:14.078Z,20.12
2023-09-08T01:47:42.841Z,20.11
2023-09-08T01:50:10.458Z,20.13
2023-09-08T01:52:38.290Z,20.07
2023-09-08T01:55:06.312Z,20.10
2023-09-08T01:57:33.822Z,20.07
2023-09-08T02:00:01.595Z,20.11
2023-09-08T02:02:29.566Z,20.13
2023-09-08T02:04:57.484Z,20.09
2023-09-08T02:07:25.064Z,19.98
2023-09-08T02:09:52.647Z,19.91
2023-09-08T02:12:20.929Z,19.92
2023-09-08T02:14:48.664Z,19.73
2023-09-08T02:17:16.209Z,19.81
2023-09-08T02:19:46.001Z,19.70
2023-09-08T02:22:13.515Z,19.47
2023-09-08T02:24:41.037Z,19.42
2023-09-08T02:27:08.809Z,19.65
2023-09-08T02:29:37.277Z,19.49
2023-09-08T02:32:05.301Z,19.63
2023-09-08T02:34:39.567Z,19.73
2023-09-08T02:37:07.475Z,19.65
2023-09-08T02:39:35.676Z,19.54
2023-09-08T02:42:03.386Z,19.70
2023-09-08T02:44:31.056Z,19.82
2023-09-08T02:46:58.865Z,19.86
2023-09-08T02:49:26.781Z,19.77
2023-09-08T02:51:54.815Z,19.73
2023-09-08T02:54:22.668Z,19.83
2023-09-08T02:56:50.192Z,19.82
2023-09-08T02:59:19.875Z,19.83
2023-09-08T03:01:48.040Z,19.62
2023-09-08T03:04:15.589Z,19.67
2023-09-08T03:06:43.106Z,19.63
2023-09-08T03:09:10.970Z,19.43
2023-09-08T03:11:38.698Z,19.54
2023-09-08T03:14:08.287Z,19.51
2023-09-08T03:16:36.285Z,19.43
2023-09-08T03:19:04.894Z,19.41
2023-09-08T03:21:32.598Z,19.50
2023-09-08T03:24:00.708Z,19.57
2023-09-08T03:26:28.233Z,19.55
2023-09-08T03:28:55.689Z,19.59
2023-09-08T03:31:23.618Z,19.47
2023-09-08T03:33:52.373Z,19.53
2023-09-08T03:36:20.344Z,19.58
2023-09-08T03:38:48.125Z,19.46
2023-09-08T03:41:15.997Z,19.40
2023-09-08T03:43:43.578Z,19.45
2023-09-08T03:46:11.596Z,19.44
2023-09-08T03:48:39.196Z,19.44
2023-09-08T03:51:07.181Z,19.46
2023-09-08T03:53:35.390Z,19.49
2023-09-08T03:56:03.249Z,19.45
2023-09-08T03:58:30.757Z,19.44
2023-09-08T04:00:58.843Z,19.57
2023-09-08T04:03:26.830Z,19.23
2023-09-08T04:05:54.592Z,19.37
2023-09-08T04:08:22.583Z,19.16
2023-09-08T04:10:50.408Z,18.98
2023-09-08T04:13:18.109Z,19.21
2023-09-08T04:15:45.697Z,19.29
2023-09-08T04:18:13.606Z,19.34
2023-09-08T04:20:41.272Z,19.18
2023-09-08T04:23:08.806Z,19.31
2023-09-08T04:25:37.670Z,19.15
2023-09-08T04:28:05.849Z,19.42
2023-09-08T04:30:33.982Z,19.49
2023-09-08T04:33:02.303Z,19.47
2023-09-08T04:35:29.967Z,19.57
2023-09-08T04:37:57.553Z,19.38
2023-09-08T04:40:25.359Z,19.70
2023-09-08T04:42:54.419Z,19.83
2023-09-08T04:45:23.348Z,19.86
2023-09-08T04:47:51.762Z,19.92
2023-09-08T04:50:19.572Z,19.88
2023-09-08T04:52:47.450Z,20.01
2023-09-08T04:55:15.431Z,20.12
2023-09-08T04:57:42.954Z,20.19
2023-09-08T05:00:12.955Z,20.19
2023-09-08T05:02:40.935Z,20.35
2023-09-08T05:05:09.203Z,20.40
2023-09-08T05:07:37.166Z,20.53
2023-09-08T05:10:05.435Z,20.54
2023-09-08T05:12:35.797Z,20.83
2023-09-08T05:15:08.020Z,21.04
2023-09-08T05:17:36.877Z,21.40
2023-09-08T05:20:04.850Z,21.75
2023-09-08T05:22:32.513Z,22.31
2023-09-08T05:25:00.848Z,22.74
2023-09-08T05:27:28.449Z,22.71
2023-09-08T05:29:56.031Z,22.65
2023-09-08T05:32:23.839Z,22.74
2023-09-08T05:34:51.673Z,22.88
2023-09-08T05:37:19.409Z,22.88
2023-09-08T05:39:47.233Z,22.87
2023-09-08T05:42:14.777Z,22.93
2023-09-08T05:44:42.482Z,22.91
2023-09-08T05:47:11.455Z,23.00
2023-09-08T05:49:39.103Z,22.97
2023-09-08T05:52:06.816Z,23.30
2023-09-08T05:54:35.724Z,23.56
2023-09-08T05:57:03.409Z,24.19
2023-09-08T05:59:31.017Z,24.07
2023-09-08T06:01:59.071Z,23.73
2023-09-08T06:04:27.078Z,23.73
2023-09-08T06:06:54.883Z,23.69
2023-09-08T06:09:22.718Z,23.82
2023-09-08T06:11:50.775Z,23.39
2023-09-08T06:14:18.349Z,23.71
2023-09-08T06:16:46.554Z,23.91
2023-09-08T06:19:14.462Z,24.17
2023-09-08T06:21:42.352Z,24.17
2023-09-08T06:24:09.987Z,24.05
2023-09-08T06:26:38.496Z,24.20
2023-09-08T06:29:06.845Z,24.36
2023-09-08T06:31:34.512Z,24.26
2023-09-08T06:34:02.961Z,24.51
2023-09-08T06:36:30.720Z,24.42
2023-09-08T06:38:58.316Z,24.34
2023-09-08T06:41:28.299Z,24.36
2023-09-08T06:43:56.515Z,24.23
2023-09-08T06:46:25.094Z,24.19
2023-09-08T06:48:53.077Z,23.52
2023-09-08T06:51:20.596Z,24.10
2023-09-08T06:53:56.749Z,24.34
2023-09-08T06:56:24.894Z,24.61
2023-09-08T06:58:53.045Z,24.48
2023-09-08T07:01:21.099Z,24.36
2023-09-08T07:03:49.287Z,24.34
2023-09-08T07:06:17.739Z,24.20
2023-09-08T07:08:45.421Z,24.15
2023-09-08T07:11:15.237Z,24.11
2023-09-08T07:13:45.997Z,24.10
2023-09-08T07:16:14.538Z,24.55
2023-09-08T07:18:42.189Z,24.39
2023-09-08T07:21:10.069Z,24.37
2023-09-08T07:23:38.435Z,23.98
2023-09-08T07:26:07.086Z,24.51
2023-09-08T07:28:35.748Z,24.52
2023-09-08T07:31:05.441Z,24.23
2023-09-08T07:33:33.478Z,24.63
2023-09-08T07:36:08.270Z,24.26
2023-09-08T07:38:36.442Z,24.43
2023-09-08T07:41:04.361Z,24.67
2023-09-08T07:43:32.598Z,24.86
2023-09-08T07:46:00.659Z,25.00
2023-09-08T07:48:28.344Z,24.78
2023-09-08T07:50:56.038Z,25.01
2023-09-08T07:53:23.832Z,24.87
2023-09-08T07:55:51.404Z,25.29
2023-09-08T07:58:19.392Z,25.27
2023-09-08T08:00:47.417Z,25.35
2023-09-08T08:03:15.385Z,25.58
2023-09-08T08:05:42.996Z,25.40
2023-09-08T08:08:10.911Z,25.16
2023-09-08T08:10:45.801Z,25.53
2023-09-08T08:13:33.361Z,25.75
2023-09-08T08:16:01.385Z,25.60
2023-09-08T08:18:29.017Z,25.17
2023-09-08T08:20:56.635Z,25.92
2023-09-08T08:23:24.456Z,25.56
2023-09-08T08:25:52.040Z,25.50
2023-09-08T08:28:19.612Z,25.86
2023-09-08T08:30:49.423Z,26.12
2023-09-08T08:33:17.164Z,25.99
2023-09-08T08:35:51.491Z,25.73
2023-09-08T08:38:19.645Z,25.40
2023-09-08T08:40:47.340Z,25.69
2023-09-08T08:43:15.002Z,26.05
2023-09-08T08:45:44.350Z,26.06
2023-09-08T08:48:13.710Z,26.20
2023-09-08T08:50:43.321Z,26.31
2023-09-08T08:53:11.732Z,26.43
2023-09-08T08:55:39.309Z,26.55
2023-09-08T08:58:10.013Z,26.50
2023-09-08T09:00:38.857Z,26.52
2023-09-08T09:03:14.020Z,26.52
2023-09-08T09:05:46.501Z,26.70
2023-09-08T09:08:17.459Z,26.90
2023-09-08T09:10:45.383Z,26.73
2023-09-08T09:13:12.980Z,27.04
2023-09-08T09:15:41.605Z,27.00
2023-09-08T09:18:10.207Z,27.22
2023-09-08T09:20:37.869Z,27.06
2023-09-08T09:23:05.391Z,27.37
2023-09-08T09:25:33.523Z,27.45
2023-09-08T09:28:03.628Z,27.69
2023-09-08T09:30:48.559Z,27.75
2023-09-08T09:33:17.068Z,27.55
2023-09-08T09:35:46.786Z,27.41
2023-09-08T09:38:14.919Z,27.85
2023-09-08T09:40:42.898Z,27.84
2023-09-08T09:43:12.490Z,27.85
2023-09-08T09:45:41.280Z,27.57
2023-09-08T09:48:10.440Z,27.45
2023-09-08T09:50:42.719Z,27.30
2023-09-08T09:53:15.583Z,27.77
2023-09-08T09:55:44.805Z,26.95
2023-09-08T09:58:13.404Z,27.47
2023-09-08T10:00:42.408Z,27.73
2023-09-08T10:03:11.989Z,28.08
2023-09-08T10:05:39.601Z,28.20
2023-09-08T10:08:07.608Z,27.77
2023-09-08T10:10:35.876Z,28.14
2023-09-08T10:13:07.410Z,28.15
2023-09-08T10:15:35.418Z,28.33
2023-09-08T10:18:06.124Z,28.25
2023-09-08T10:20:35.689Z,28.41
2023-09-08T10:23:10.036Z,28.42
2023-09-08T10:25:44.142Z,28.42
2023-09-08T10:28:14.094Z,28.63
2023-09-08T10:30:42.076Z,28.63
2023-09-08T10:33:12.748Z,28.61
2023-09-08T10:35:41.436Z,28.73
2023-09-08T10:38:28.957Z,28.80
2023-09-08T10:41:18.538Z,28.89
2023-09-08T10:43:47.442Z,28.55
2023-09-08T10:46:28.812Z,28.70
2023-09-08T10:49:03.533Z,28.53
2023-09-08T10:51:31.793Z,28.65
2023-09-08T10:53:59.499Z,28.12
2023-09-08T10:56:50.332Z,27.99
2023-09-08T10:59:18.313Z,28.88
2023-09-08T11:01:48.653Z,28.87
2023-09-08T11:04:20.311Z,28.99
2023-09-08T11:06:50.220Z,29.33
2023-09-08T11:09:17.772Z,29.29
2023-09-08T11:11:46.322Z,29.50
2023-09-08T11:14:14.547Z,29.80
2023-09-08T11:16:42.083Z,29.60
2023-09-08T11:19:11.154Z,29.83
2023-09-08T11:21:41.820Z,29.51
2023-09-08T11:24:10.748Z,29.49
2023-09-08T11:26:38.688Z,29.25
2023-09-08T11:29:06.668Z,29.53
2023-09-08T11:31:35.757Z,29.73
2023-09-08T11:34:06.517Z,29.92
2023-09-08T11:36:36.242Z,29.83
2023-09-08T11:39:07.169Z,28.91
2023-09-08T11:41:35.892Z,29.56
2023-09-08T11:44:03.578Z,29.51
2023-09-08T11:46:31.499Z,29.47
2023-09-08T11:48:59.706Z,29.07
2023-09-08T11:51:27.637Z,29.27
2023-09-08T11:53:55.260Z,29.46
2023-09-08T11:56:23.215Z,29.29
2023-09-08T11:58:51.268Z,29.07
2023-09-08T12:01:19.901Z,29.35
2023-09-08T12:03:54.826Z,29.54
2023-09-08T12:06:27.114Z,29.69
2023-09-08T12:08:56.530Z,29.41
2023-09-08T12:11:24.188Z,29.04
2023-09-08T12:13:51.784Z,29.27
2023-09-08T12:16:20.799Z,28.96
2023-09-08T12:18:49.837Z,29.36
2023-09-08T12:21:17.577Z,28.98
2023-09-08T12:23:50.327Z,29.06
2023-09-08T12:26:18.733Z,29.16
2023-09-08T12:28:47.889Z,28.71
2023-09-08T12:31:16.544Z,29.35
2023-09-08T12:33:45.173Z,29.55
2023-09-08T12:36:17.928Z,29.78
2023-09-08T12:38:53.041Z,29.78
2023-09-08T12:41:21.265Z,29.70
2023-09-08T12:43:48.886Z,30.00
2023-09-08T12:46:18.327Z,30.16
2023-09-08T12:48:46.185Z,30.27
2023-09-08T12:51:13.722Z,29.84
2023-09-08T12:53:41.345Z,29.50
2023-09-08T12:56:09.436Z,29.79
2023-09-08T12:58:37.239Z,29.72
2023-09-08T13:01:07.843Z,29.51
2023-09-08T13:03:35.785Z,29.78
2023-09-08T13:06:03.439Z,30.17
2023-09-08T13:08:31.161Z,29.69
2023-09-08T13:10:59.016Z,29.80
2023-09-08T13:13:27.943Z,29.76
2023-09-08T13:15:55.470Z,29.47
2023-09-08T13:18:23.374Z,29.92
2023-09-08T13:20:50.920Z,29.08
2023-09-08T13:23:18.530Z,29.91
2023-09-08T13:25:46.487Z,29.90
2023-09-08T13:28:14.018Z,30.09
2023-09-08T13:30:41.600Z,29.62
2023-09-08T13:33:09.835Z,29.63
2023-09-08T13:35:37.574Z,29.47
2023-09-08T13:38:05.294Z,30.01
2023-09-08T13:40:33.608Z,29.83
2023-09-08T13:43:01.604Z,29.95
2023-09-08T13:45:30.319Z,29.64
2023-09-08T13:47:58.650Z,29.84
2023-09-08T13:50:27.591Z,30.00
2023-09-08T13:52:57.446Z,30.25
2023-09-08T13:55:35.847Z,30.50
2023-09-08T13:58:09.103Z,29.55
2023-09-08T14:00:39.544Z,30.16
2023-09-08T14:03:12.805Z,30.20
2023-09-08T14:05:45.465Z,29.86
2023-09-08T14:08:18.367Z,29.59
2023-09-08T14:11:04.831Z,29.59
2023-09-08T14:13:38.488Z,29.76
2023-09-08T14:16:06.330Z,29.82
2023-09-08T14:18:34.486Z,30.20
2023-09-08T14:21:02.315Z,29.94
2023-09-08T14:23:30.197Z,30.13
2023-09-08T14:25:57.940Z,29.91
2023-09-08T14:28:26.980Z,30.05
2023-09-08T14:30:54.669Z,30.01
2023-09-08T14:33:22.237Z,30.05
2023-09-08T14:35:52.719Z,29.90
2023-09-08T14:38:20.495Z,29.52
2023-09-08T14:41:01.755Z,29.43
2023-09-08T14:43:30.609Z,29.32
2023-09-08T14:45:58.578Z,29.42
2023-09-08T14:48:26.481Z,29.75
2023-09-08T14:50:55.642Z,29.84
2023-09-08T14:53:23.696Z,30.06
2023-09-08T14:55:51.318Z,29.57
2023-09-08T14:58:19.210Z,29.76
2023-09-08T15:00:47.423Z,29.99
2023-09-08T15:03:16.192Z,29.76
2023-09-08T15:05:44.255Z,29.97
2023-09-08T15:08:13.656Z,29.83
2023-09-08T15:10:41.540Z,29.60
2023-09-08T15:13:09.382Z,29.46
2023-09-08T15:15:37.099Z,29.14
2023-09-08T15:18:04.883Z,29.39
2023-09-08T15:20:32.753Z,29.21
2023-09-08T15:23:00.377Z,29.70
2023-09-08T15:25:27.944Z,29.14
2023-09-08T15:27:55.786Z,29.67
2023-09-08T15:30:23.331Z,29.77
2023-09-08T15:32:50.918Z,29.88
2023-09-08T15:35:18.910Z,29.81
2023-09-08T15:37:46.480Z,29.99
2023-09-08T15:40:15.439Z,30.12
2023-09-08T15:42:44.586Z,30.08
2023-09-08T15:45:12.603Z,29.93
2023-09-08T15:47:40.342Z,29.72
2023-09-08T15:50:10.099Z,29.28
2023-09-08T15:52:38.120Z,29.54
2023-09-08T15:55:06.098Z,29.23
2023-09-08T15:57:33.987Z,29.65
2023-09-08T16:00:01.651Z,29.71
2023-09-08T16:02:36.589Z,29.77
2023-09-08T16:05:04.834Z,29.31
2023-09-08T16:07:32.526Z,29.59
2023-09-08T16:10:00.061Z,29.70
2023-09-08T16:12:27.931Z,29.63
2023-09-08T16:14:55.508Z,29.56
2023-09-08T16:17:23.763Z,29.32
2023-09-08T16:19:51.677Z,29.73
2023-09-08T16:22:19.302Z,29.84
2023-09-08T16:24:46.893Z,29.79
2023-09-08T16:27:14.745Z,29.78
2023-09-08T16:29:43.024Z,29.47
2023-09-08T16:32:11.849Z,29.75
2023-09-08T16:34:39.763Z,29.79
2023-09-08T16:37:07.417Z,29.82
2023-09-08T16:39:35.082Z,29.77
2023-09-08T16:42:03.752Z,29.71
2023-09-08T16:44:31.336Z,29.67
2023-09-08T16:46:59.120Z,29.66
2023-09-08T16:49:27.257Z,29.58
2023-09-08T16:51:57.837Z,29.57
2023-09-08T16:54:25.339Z,29.53
2023-09-08T16:56:53.192Z,29.38
2023-09-08T16:59:22.152Z,29.33
2023-09-08T17:01:53.048Z,29.22
2023-09-08T17:04:21.082Z,29.16
2023-09-08T17:06:49.211Z,29.02
2023-09-08T17:09:18.563Z,28.77
2023-09-08T17:11:46.357Z,28.76
2023-09-08T17:14:14.089Z,28.66
2023-09-08T17:16:41.580Z,28.45
2023-09-08T17:19:11.092Z,28.30
2023-09-08T17:21:38.718Z,28.21
2023-09-08T17:24:06.579Z,28.08
2023-09-08T17:26:34.390Z,27.95
2023-09-08T17:29:02.065Z,27.85
2023-09-08T17:31:31.680Z,27.76
2023-09-08T17:33:59.704Z,27.67
2023-09-08T17:36:27.872Z,27.48
2023-09-08T17:38:55.422Z,27.44
2023-09-08T17:41:23.220Z,27.13
2023-09-08T17:43:50.785Z,26.96
2023-09-08T17:46:18.412Z,26.87
2023-09-08T17:48:46.400Z,26.81
2023-09-08T17:51:13.978Z,26.76
2023-09-08T17:53:41.560Z,26.44
2023-09-08T17:56:09.475Z,26.30
2023-09-08T17:58:37.086Z,26.20
2023-09-08T18:01:04.676Z,26.20
2023-09-08T18:03:32.745Z,26.01
2023-09-08T18:06:00.441Z,26.02
2023-09-08T18:08:28.038Z,25.84
2023-09-08T18:11:04.456Z,25.74
2023-09-08T18:13:32.728Z,25.54
2023-09-08T18:16:02.157Z,25.58
2023-09-08T18:18:31.436Z,25.58
2023-09-08T18:20:59.355Z,25.48
2023-09-08T18:23:27.636Z,25.26
2023-09-08T18:25:57.810Z,25.25
2023-09-08T18:28:26.903Z,25.06
2023-09-08T18:30:54.993Z,24.66
2023-09-08T18:33:22.925Z,24.92
2023-09-08T18:35:50.495Z,24.97
2023-09-08T18:38:18.674Z,24.81
2023-09-08T18:40:47.253Z,24.77
2023-09-08T18:43:15.918Z,24.77
2023-09-08T18:45:43.971Z,24.71
2023-09-08T18:48:12.107Z,24.77
2023-09-08T18:50:39.707Z,24.77
2023-09-08T18:53:07.587Z,24.75
2023-09-08T18:55:35.678Z,24.68
2023-09-08T18:58:06.001Z,24.60
2023-09-08T19:00:34.432Z,24.32
2023-09-08T19:03:03.390Z,24.43
2023-09-08T19:05:31.496Z,24.40
2023-09-08T19:07:59.553Z,24.34
2023-09-08T19:10:27.184Z,24.17
2023-09-08T19:12:54.927Z,24.06
2023-09-08T19:15:22.883Z,24.02
2023-09-08T19:17:52.404Z,24.03
2023-09-08T19:20:20.441Z,24.04
2023-09-08T19:22:49.563Z,23.86
2023-09-08T19:25:17.459Z,23.88
2023-09-08T19:27:45.131Z,23.74
2023-09-08T19:30:13.325Z,23.70
2023-09-08T19:32:40.977Z,23.74
2023-09-08T19:35:09.179Z,23.76
2023-09-08T19:37:37.028Z,23.73
2023-09-08T19:40:06.600Z,23.69
2023-09-08T19:42:34.165Z,23.60
2023-09-08T19:45:04.311Z,23.59
2023-09-08T19:47:33.299Z,23.66
2023-09-08T19:50:06.262Z,23.55
2023-09-08T19:52:34.092Z,23.48
2023-09-08T19:55:01.632Z,23.35
2023-09-08T19:57:29.193Z,23.41
2023-09-08T19:59:57.059Z,23.38
2023-09-08T20:02:25.025Z,23.10
2023-09-08T20:04:53.014Z,23.23
2023-09-08T20:07:20.522Z,23.24
2023-09-08T20:09:48.472Z,23.24
2023-09-08T20:12:16.356Z,23.15
2023-09-08T20:14:44.078Z,23.04
2023-09-08T20:17:11.859Z,23.05
2023-09-08T20:19:39.967Z,23.07
2023-09-08T20:22:07.821Z,22.99
2023-09-08T20:24:35.351Z,22.99
2023-09-08T20:27:03.575Z,22.70
2023-09-08T20:29:31.611Z,22.73
2023-09-08T20:31:59.684Z,22.77
2023-09-08T20:34:27.771Z,22.73
2023-09-08T20:36:55.898Z,22.70
2023-09-08T20:39:24.220Z,22.62
2023-09-08T20:41:52.387Z,22.63
2023-09-08T20:44:19.919Z,22.63
2023-09-08T20:46:47.695Z,22.63
2023-09-08T20:49:15.617Z,22.13
2023-09-08T20:51:43.238Z,22.37
2023-09-08T20:54:10.761Z,22.40
2023-09-08T20:56:39.178Z,22.32
2023-09-08T20:59:06.698Z,22.35
2023-09-08T21:01:34.296Z,22.37
2023-09-08T21:04:02.236Z,22.33
2023-09-08T21:06:29.834Z,22.40
2023-09-08T21:08:57.377Z,22.23
2023-09-08T21:11:25.632Z,21.92
2023-09-08T21:13:53.335Z,22.00
2023-09-08T21:16:20.925Z,22.13
2023-09-08T21:18:48.696Z,22.09
2023-09-08T21:21:16.172Z,22.16
2023-09-08T21:23:43.725Z,22.11
2023-09-08T21:26:11.711Z,22.15
2023-09-08T21:28:39.300Z,22.18
2023-09-08T21:31:08.902Z,22.15
2023-09-08T21:33:38.827Z,22.06
2023-09-08T21:36:07.943Z,22.08
2023-09-08T21:38:35.723Z,21.77
2023-09-08T21:41:10.820Z,21.91
2023-09-08T21:43:39.249Z,21.93
2023-09-08T21:46:08.457Z,22.00
2023-09-08T21:48:36.934Z,21.89
2023-09-08T21:51:05.401Z,22.03
2023-09-08T21:53:33.380Z,22.06
2023-09-08T21:56:01.027Z,22.10
2023-09-08T21:58:28.779Z,21.86
2023-09-08T22:00:57.376Z,22.01
2023-09-08T22:03:25.423Z,22.07
2023-09-08T22:05:53.304Z,22.06
2023-09-08T22:08:20.824Z,21.87
2023-09-08T22:10:48.646Z,21.91
2023-09-08T22:13:16.115Z,21.80
2023-09-08T22:15:43.791Z,21.84
2023-09-08T22:18:11.689Z,21.83
2023-09-08T22:20:41.130Z,21.84
2023-09-08T22:23:10.077Z,21.88
2023-09-08T22:25:39.753Z,21.87
2023-09-08T22:28:07.818Z,21.87
2023-09-08T22:30:35.398Z,21.31
2023-09-08T22:33:04.419Z,21.65
2023-09-08T22:35:32.143Z,21.69
2023-09-08T22:37:59.731Z,21.60
2023-09-08T22:40:27.833Z,21.47
2023-09-08T22:42:55.473Z,21.54
2023-09-08T22:45:23.682Z,21.38
2023-09-08T22:47:51.581Z,21.43
2023-09-08T22:50:19.294Z,21.39
2023-09-08T22:52:46.927Z,21.52
2023-09-08T22:55:25.212Z,21.49
2023-09-08T22:57:54.639Z,21.52
2023-09-08T23:00:23.501Z,21.56
2023-09-08T23:02:51.230Z,21.45
2023-09-08T23:05:18.854Z,21.50
2023-09-08T23:07:46.848Z,21.52
2023-09-08T23:10:15.293Z,21.44
2023-09-08T23:12:43.019Z,21.42
2023-09-08T23:15:11.153Z,21.40
2023-09-08T23:17:39.282Z,21.38
2023-09-08T23:20:16.840Z,21.41
2023-09-08T23:22:45.294Z,21.41
2023-09-08T23:25:13.432Z,21.24
2023-09-08T23:27:41.073Z,21.26
2023-09-08T23:30:10.156Z,21.31
2023-09-08T23:32:37.896Z,21.30
2023-09-08T23:35:06.894Z,21.22
2023-09-08T23:37:34.803Z,21.03
2023-09-08T23:40:05.548Z,21.05
2023-09-08T23:42:33.072Z,21.13
2023-09-08T23:45:00.884Z,20.98
2023-09-08T23:47:28.382Z,21.08
2023-09-08T23:49:55.998Z,21.00
2023-09-08T23:52:23.749Z,20.94
2023-09-08T23:54:51.241Z,21.04
2023-09-08T23:57:18.804Z,20.86
2023-09-08T23:59:47.862Z,20.82
